Time;durP1;ratioP1;P1;durP2;ratioP2;P2;SDS_P1;SDS_P2;PMS_P1;PMS_P2;Temp;Humidity;BMP_temperature;BMP_pressure;BME280_temperature;BME280_humidity;BME280_pressure;Samples;Min_cycle;Max_cycle;Signal;HPM_P1;HPM_P2
2021/10/20 00:00:17;;;;;;;7.32;5.03;;;;;;;7.76;100.00;96504.03;1031892;28;20371;-51
2021/10/20 00:00:48;;;;;;;6.97;4.90;;;;;;;7.76;100.00;96509.25;1032521;28;20014;-52
2021/10/20 00:01:19;;;;;;;6.50;4.68;;;;;;;7.75;100.00;96504.09;1031823;28;20260;-52
2021/10/20 00:01:50;;;;;;;9.20;4.75;;;;;;;7.73;100.00;96503.34;1028285;28;20018;-52
2021/10/20 00:02:20;;;;;;;6.72;4.85;;;;;;;7.72;100.00;96501.66;1028138;28;20748;-52
2021/10/20 00:02:51;;;;;;;8.65;4.80;;;;;;;7.73;100.00;96505.94;1031632;28;20017;-49
2021/10/20 00:03:22;;;;;;;9.13;4.32;;;;;;;7.75;100.00;96504.09;1027913;28;20025;-52
2021/10/20 00:03:53;;;;;;;7.03;4.53;;;;;;;7.74;100.00;96499.81;1031736;28;20072;-52
2021/10/20 00:04:23;;;;;;;8.93;4.47;;;;;;;7.74;100.00;96500.66;1023707;29;20054;-53
2021/10/20 00:04:55;;;;;;;7.15;4.68;;;;;;;7.74;100.00;96502.44;1019753;29;20581;-52
2021/10/20 00:05:25;;;;;;;7.20;4.70;;;;;;;7.71;100.00;96502.56;1023827;29;20054;-53
2021/10/20 00:05:57;;;;;;;6.40;4.38;;;;;;;7.73;100.00;96498.97;1027751;28;20254;-52
2021/10/20 00:06:28;;;;;;;6.25;4.53;;;;;;;7.75;100.00;96507.56;1027746;28;20028;-51
2021/10/20 00:06:59;;;;;;;6.68;4.45;;;;;;;7.73;100.00;96498.13;1027702;28;20266;-51
2021/10/20 00:07:30;;;;;;;7.97;4.50;;;;;;;7.72;100.00;96501.66;1027888;28;20018;-50
2021/10/20 00:08:03;;;;;;;6.75;4.13;;;;;;;7.66;100.00;96501.94;1024470;28;20074;-49
2021/10/20 00:08:34;;;;;;;8.18;4.53;;;;;;;7.67;100.00;96501.03;1028074;28;20054;-50
2021/10/20 00:09:04;;;;;;;8.80;4.78;;;;;;;7.65;100.00;96500.28;1031456;28;20242;-51
2021/10/20 00:09:35;;;;;;;10.48;5.05;;;;;;;7.67;100.00;96503.66;1032421;28;20017;-52
2021/10/20 00:10:06;;;;;;;7.22;4.60;;;;;;;7.66;100.00;96499.34;1031941;28;20045;-53
2021/10/20 00:10:37;;;;;;;7.82;5.30;;;;;;;7.66;100.00;96495.00;1023724;28;20390;-52
2021/10/20 00:11:08;;;;;;;7.10;4.60;;;;;;;7.68;100.00;96500.97;1027753;28;20230;-51
2021/10/20 00:11:38;;;;;;;6.35;4.00;;;;;;;7.72;100.00;96499.88;1027853;28;20014;-51
2021/10/20 00:12:09;;;;;;;8.35;4.47;;;;;;;7.73;100.00;96498.13;1027687;28;20015;-52
2021/10/20 00:12:40;;;;;;;6.95;4.88;;;;;;;7.69;100.00;96493.97;1023829;28;20472;-53
2021/10/20 00:13:11;;;;;;;7.90;4.78;;;;;;;7.67;100.00;96493.22;1023895;28;20019;-52
2021/10/20 00:13:41;;;;;;;6.85;4.07;;;;;;;7.65;100.00;96495.06;1028079;28;20072;-51
2021/10/20 00:14:12;;;;;;;6.40;4.15;;;;;;;7.69;100.00;96493.97;1031831;28;20452;-52
2021/10/20 00:14:43;;;;;;;6.78;4.53;;;;;;;7.67;100.00;96495.81;1031946;28;20444;-52
2021/10/20 00:15:19;;;;;;;7.88;4.55;;;;;;;7.65;100.00;96493.28;1031799;28;20026;-50
2021/10/20 00:15:50;;;;;;;5.97;3.80;;;;;;;7.63;100.00;96489.09;1027764;28;20019;-52
2021/10/20 00:16:21;;;;;;;6.57;4.50;;;;;;;7.68;100.00;96493.16;1023733;29;20275;-51
2021/10/20 00:16:52;;;;;;;6.40;4.45;;;;;;;7.72;100.00;96488.63;1024511;28;20030;-51
2021/10/20 00:17:22;;;;;;;5.72;3.88;;;;;;;7.74;100.00;96492.81;1027748;28;20282;-52
2021/10/20 00:17:53;;;;;;;7.93;4.28;;;;;;;7.71;100.00;96490.38;1028407;28;20077;-52
2021/10/20 00:18:24;;;;;;;6.75;3.95;;;;;;;7.71;100.00;96486.91;1035980;28;20068;-51
2021/10/20 00:18:55;;;;;;;6.82;4.40;;;;;;;7.72;100.00;96486.00;1035969;28;20029;-52
2021/10/20 00:19:26;;;;;;;7.38;4.72;;;;;;;7.68;100.00;96482.72;1031855;28;20007;-52
2021/10/20 00:20:00;;;;;;;7.93;4.45;;;;;;;7.66;100.00;96479.34;1031856;28;20689;-52
2021/10/20 00:20:31;;;;;;;6.13;4.40;;;;;;;7.65;100.00;96482.84;1032396;28;20112;-51
2021/10/20 00:21:05;;;;;;;6.50;4.30;;;;;;;7.63;100.00;96482.09;1031561;28;20292;-51
2021/10/20 00:21:35;;;;;;;6.10;4.05;;;;;;;7.66;100.00;96479.34;1023597;29;20122;-51
2021/10/20 00:22:06;;;;;;;7.28;4.45;;;;;;;7.63;100.00;96479.47;1024433;28;20291;-51
2021/10/20 00:22:38;;;;;;;6.05;4.47;;;;;;;7.63;100.00;96476.88;1024294;28;20031;-52
2021/10/20 00:23:09;;;;;;;6.82;4.55;;;;;;;7.62;100.00;96482.16;1028243;28;20044;-52
2021/10/20 00:23:40;;;;;;;6.80;4.75;;;;;;;7.57;100.00;96474.59;1027756;28;20273;-50
2021/10/20 00:24:11;;;;;;;6.75;4.30;;;;;;;7.57;100.00;96482.41;1028248;28;20277;-52
2021/10/20 00:24:42;;;;;;;8.00;4.72;;;;;;;7.56;100.00;96473.75;1027633;28;20113;-51
2021/10/20 00:25:12;;;;;;;7.72;5.25;;;;;;;7.55;100.00;96479.03;1024225;28;20031;-51
2021/10/20 00:25:43;;;;;;;7.93;4.85;;;;;;;7.59;100.00;96478.78;1031854;28;20022;-52
2021/10/20 00:26:14;;;;;;;7.00;4.30;;;;;;;7.56;100.00;96478.09;1032049;28;20046;-51
2021/10/20 00:26:44;;;;;;;6.53;4.32;;;;;;;7.53;100.00;96471.28;1031681;28;20121;-52
2021/10/20 00:27:15;;;;;;;7.68;4.50;;;;;;;7.53;100.00;96481.72;1023546;28;20023;-50
2021/10/20 00:27:46;;;;;;;8.23;4.68;;;;;;;7.51;100.00;96475.72;1023786;29;20433;-51
2021/10/20 00:28:16;;;;;;;5.80;3.95;;;;;;;7.49;100.00;96472.34;1027856;28;20489;-51
2021/10/20 00:28:47;;;;;;;6.38;4.70;;;;;;;7.45;100.00;96477.78;1032016;28;20069;-52
2021/10/20 00:29:18;;;;;;;6.32;4.20;;;;;;;7.50;100.00;96479.25;1027740;28;20033;-50
2021/10/20 00:29:49;;;;;;;7.07;4.65;;;;;;;7.51;100.00;96482.72;1028018;28;20473;-52
2021/10/20 00:30:19;;;;;;;7.45;4.72;;;;;;;7.47;100.00;96473.34;1031599;28;20192;-52
2021/10/20 00:30:50;;;;;;;6.43;4.30;;;;;;;7.45;100.00;96478.66;1027624;28;20065;-51
2021/10/20 00:31:20;;;;;;;6.70;4.40;;;;;;;7.46;100.00;96476.88;1027433;28;20023;-51
2021/10/20 00:31:51;;;;;;;7.32;4.22;;;;;;;7.46;100.00;96472.50;1031705;28;20088;-51
2021/10/20 00:32:22;;;;;;;7.55;4.80;;;;;;;7.44;100.00;96473.50;1027727;28;20030;-52
2021/10/20 00:32:53;;;;;;;6.28;4.53;;;;;;;7.45;100.00;96478.66;1027802;28;20022;-52
2021/10/20 00:33:23;;;;;;;7.25;4.20;;;;;;;7.42;100.00;96476.19;1023698;28;20713;-52
2021/10/20 00:33:54;;;;;;;7.63;4.40;;;;;;;7.45;100.00;96476.03;1020128;28;20063;-52
2021/10/20 00:34:25;;;;;;;6.53;4.70;;;;;;;7.45;100.00;96476.03;1027669;28;20031;-50
2021/10/20 00:34:55;;;;;;;6.63;4.20;;;;;;;7.44;100.00;96473.50;1024015;28;20054;-52
2021/10/20 00:35:26;;;;;;;6.13;4.15;;;;;;;7.44;100.00;96478.72;1031970;28;20030;-51
2021/10/20 00:35:57;;;;;;;7.40;5.07;;;;;;;7.45;100.00;96476.03;1035762;28;20021;-53
2021/10/20 00:36:28;;;;;;;8.63;4.50;;;;;;;7.43;100.00;96480.47;1036069;28;20435;-51
2021/10/20 00:36:58;;;;;;;8.38;4.43;;;;;;;7.45;100.00;96477.78;1031693;28;20022;-51
2021/10/20 00:37:29;;;;;;;8.15;4.63;;;;;;;7.44;100.00;96469.13;1027658;28;20029;-49
2021/10/20 00:38:00;;;;;;;6.45;4.50;;;;;;;7.48;100.00;96472.44;1023694;29;20425;-49
2021/10/20 00:38:31;;;;;;;6.45;4.22;;;;;;;7.45;100.00;96476.03;1023648;29;20302;-50
2021/10/20 00:39:01;;;;;;;6.32;4.38;;;;;;;7.44;100.00;96479.56;1023868;28;20030;-52
2021/10/20 00:39:32;;;;;;;7.45;4.45;;;;;;;7.40;100.00;96472.81;1023869;28;20030;-51
2021/10/20 00:40:04;;;;;;;7.18;4.13;;;;;;;7.39;100.00;96471.09;1023651;28;20042;-51
2021/10/20 00:40:35;;;;;;;6.55;4.35;;;;;;;7.40;100.00;96465.00;1028067;28;20014;-51
2021/10/20 00:41:06;;;;;;;6.88;4.25;;;;;;;7.39;100.00;96471.09;1023556;29;20734;-52
2021/10/20 00:41:36;;;;;;;6.50;3.90;;;;;;;7.41;100.00;96469.28;1023678;28;20106;-51
2021/10/20 00:42:07;;;;;;;16.60;4.50;;;;;;;7.43;100.00;96464.81;1023624;29;20023;-51
2021/10/20 00:42:38;;;;;;;6.07;4.05;;;;;;;7.43;100.00;96467.44;1027940;28;20026;-49
2021/10/20 00:43:08;;;;;;;7.38;4.30;;;;;;;7.39;100.00;96466.75;1035644;28;20344;-51
2021/10/20 00:43:40;;;;;;;6.70;4.32;;;;;;;7.38;100.00;96465.06;1035741;28;20056;-51
2021/10/20 00:44:11;;;;;;;7.55;4.50;;;;;;;7.43;100.00;96459.59;1023441;29;20023;-51
2021/10/20 00:44:52;;;;;;;5.53;3.92;;;;;;;7.46;100.00;96462.06;1023764;29;20263;-51
2021/10/20 00:45:23;;;;;;;5.68;4.03;;;;;;;7.51;100.00;96456.66;1025384;28;20182;-51
2021/10/20 00:45:53;;;;;;;6.18;4.07;;;;;;;7.40;100.00;96447.56;1032980;28;20332;-50
2021/10/20 00:46:26;;;;;;;6.20;4.05;;;;;;;7.49;100.00;96456.72;1031577;28;20053;-50
2021/10/20 00:46:57;;;;;;;6.80;4.30;;;;;;;7.47;100.00;96457.69;1028203;28;20045;-52
2021/10/20 00:47:28;;;;;;;6.65;4.35;;;;;;;7.42;100.00;96457.94;1027580;28;20764;-51
2021/10/20 00:47:58;;;;;;;6.93;4.38;;;;;;;7.39;100.00;96455.47;1024046;28;20106;-52
2021/10/20 00:48:29;;;;;;;6.43;4.10;;;;;;;7.41;100.00;96458.84;1027563;28;20026;-49
2021/10/20 00:49:00;;;;;;;6.40;4.18;;;;;;;7.45;100.00;96455.19;1027992;28;20027;-50
2021/10/20 00:49:31;;;;;;;5.93;4.15;;;;;;;7.45;100.00;96455.19;1027508;28;20348;-52
2021/10/20 00:50:01;;;;;;;6.03;3.85;;;;;;;7.42;100.00;96449.28;1023655;28;20019;-52
2021/10/20 00:50:32;;;;;;;7.30;4.03;;;;;;;7.38;100.00;96452.03;1027592;28;20405;-51
2021/10/20 00:51:03;;;;;;;7.45;4.20;;;;;;;7.34;100.00;96442.69;1024217;28;20008;-49
2021/10/20 00:51:33;;;;;;;6.00;3.92;;;;;;;7.36;100.00;96447.81;1027723;28;20030;-51
2021/10/20 00:52:07;;;;;;;6.28;4.35;;;;;;;7.33;100.00;96447.97;1027490;28;20093;-51
2021/10/20 00:52:38;;;;;;;6.57;4.30;;;;;;;7.33;100.00;96450.56;1027552;28;20030;-52
2021/10/20 00:53:09;;;;;;;6.13;4.13;;;;;;;7.31;100.00;96442.81;1027427;28;20262;-52
2021/10/20 00:53:40;;;;;;;8.32;4.43;;;;;;;7.31;100.00;96452.41;1027556;28;20258;-51
2021/10/20 00:54:11;;;;;;;9.93;4.28;;;;;;;7.26;100.00;96443.97;1031487;28;20262;-52
2021/10/20 00:54:41;;;;;;;6.07;3.85;;;;;;;7.26;100.00;96449.19;1031795;28;20014;-52
2021/10/20 00:55:12;;;;;;;7.15;4.60;;;;;;;7.26;100.00;96444.78;1031599;28;20023;-52
2021/10/20 00:55:43;;;;;;;6.88;4.03;;;;;;;7.26;100.00;96442.19;1027597;28;20107;-52
2021/10/20 00:56:14;;;;;;;6.55;4.20;;;;;;;7.29;100.00;96443.81;1023697;29;20347;-52
2021/10/20 00:56:45;;;;;;;5.93;4.07;;;;;;;7.26;100.00;96438.75;1024329;28;20465;-52
2021/10/20 00:57:15;;;;;;;8.90;4.43;;;;;;;7.32;100.00;96441.91;1031960;28;20496;-51
2021/10/20 00:57:46;;;;;;;7.28;4.38;;;;;;;7.34;100.00;96445.28;1027568;28;20112;-52
2021/10/20 00:58:18;;;;;;;5.90;3.90;;;;;;;7.34;100.00;96442.69;1027605;28;20023;-52
2021/10/20 00:58:49;;;;;;;6.28;4.13;;;;;;;7.32;100.00;96444.53;1027810;28;20272;-52
2021/10/20 00:59:19;;;;;;;7.47;4.97;;;;;;;7.27;100.00;96435.25;1031805;28;20268;-52
2021/10/20 00:59:50;;;;;;;7.30;3.95;;;;;;;7.27;100.00;96441.28;1027557;28;20300;-53
2021/10/20 01:00:21;;;;;;;6.72;4.32;;;;;;;7.27;100.00;96440.44;1031514;28;20014;-52
2021/10/20 01:00:51;;;;;;;6.78;4.80;;;;;;;7.26;100.00;96436.97;1027668;28;20042;-50
2021/10/20 01:01:22;;;;;;;5.68;4.30;;;;;;;7.26;100.00;96438.75;1027499;28;20059;-53
2021/10/20 01:01:53;;;;;;;8.57;4.72;;;;;;;7.21;100.00;96436.38;1027565;28;20029;-52
2021/10/20 01:02:24;;;;;;;7.22;4.72;;;;;;;7.19;100.00;96436.47;1023579;29;20641;-52
2021/10/20 01:02:54;;;;;;;7.28;4.20;;;;;;;7.19;100.00;96436.47;1023463;28;20167;-52
2021/10/20 01:03:25;;;;;;;5.65;4.03;;;;;;;7.20;100.00;96432.06;1027790;28;20445;-52
2021/10/20 01:03:56;;;;;;;6.20;4.05;;;;;;;7.18;100.00;96431.31;1027632;28;20023;-52
2021/10/20 01:04:27;;;;;;;5.95;4.60;;;;;;;7.16;100.00;96426.16;1031616;28;20014;-51
2021/10/20 01:04:58;;;;;;;5.72;4.15;;;;;;;7.17;100.00;96435.69;1027450;28;20254;-52
2021/10/20 01:05:28;;;;;;;5.47;4.13;;;;;;;7.17;100.00;96430.47;1024045;28;20024;-52
2021/10/20 01:06:00;;;;;;;9.23;4.75;;;;;;;7.20;100.00;96419.88;1027910;28;20019;-51
2021/10/20 01:06:33;;;;;;;6.68;4.03;;;;;;;7.25;100.00;96435.31;1027943;28;20015;-52
2021/10/20 01:07:04;;;;;;;7.32;4.32;;;;;;;7.28;100.00;96431.69;1028048;28;20254;-51
2021/10/20 01:07:36;;;;;;;9.77;4.55;;;;;;;7.26;100.00;96428.31;1032537;28;20265;-52
2021/10/20 01:08:07;;;;;;;7.72;4.50;;;;;;;7.26;100.00;96423.09;1032426;28;20767;-51
2021/10/20 01:08:38;;;;;;;5.88;4.25;;;;;;;7.24;100.00;96424.94;1027885;28;20262;-51
2021/10/20 01:09:09;;;;;;;6.22;4.57;;;;;;;7.25;100.00;96418.84;1027477;28;20269;-51
2021/10/20 01:09:39;;;;;;;6.70;4.18;;;;;;;7.20;100.00;96422.47;1027854;28;20345;-50
2021/10/20 01:10:10;;;;;;;6.07;3.97;;;;;;;7.20;100.00;96422.47;1031775;28;20015;-51
2021/10/20 01:10:41;;;;;;;7.93;4.53;;;;;;;7.22;100.00;96421.59;1027535;28;20022;-51
2021/10/20 01:11:13;;;;;;;6.07;4.22;;;;;;;7.27;100.00;96419.59;1023337;29;20437;-52
2021/10/20 01:11:44;;;;;;;7.28;3.60;;;;;;;7.28;100.00;96409.09;1027458;28;20269;-52
2021/10/20 01:12:16;;;;;;;7.50;4.30;;;;;;;7.24;100.00;96420.56;1027657;28;20293;-52
2021/10/20 01:12:47;;;;;;;6.63;4.47;;;;;;;7.23;100.00;96418.91;1024389;28;20350;-52
2021/10/20 01:13:17;;;;;;;6.07;4.05;;;;;;;7.23;100.00;96418.91;1023729;28;20325;-52
2021/10/20 01:13:48;;;;;;;6.13;4.03;;;;;;;7.26;100.00;96408.31;1023499;29;20019;-51
2021/10/20 01:14:20;;;;;;;6.43;4.40;;;;;;;7.27;100.00;96412.63;1035666;28;20018;-52
2021/10/20 01:14:50;;;;;;;5.72;3.78;;;;;;;7.29;100.00;96415.16;1031544;28;20105;-51
2021/10/20 01:15:23;;;;;;;7.60;4.20;;;;;;;7.26;100.00;96408.31;1027447;28;20655;-52
2021/10/20 01:15:55;;;;;;;6.47;3.83;;;;;;;7.29;100.00;96412.53;1023532;29;20015;-52
2021/10/20 01:16:25;;;;;;;7.75;3.92;;;;;;;7.27;100.00;96409.19;1031467;28;20285;-51
2021/10/20 01:16:57;;;;;;;9.25;4.20;;;;;;;7.23;100.00;96410.25;1027474;28;20310;-52
2021/10/20 01:17:28;;;;;;;6.47;4.53;;;;;;;7.24;100.00;96415.38;1027461;28;20105;-51
2021/10/20 01:17:58;;;;;;;7.22;4.18;;;;;;;7.20;100.00;96406.84;1031575;28;20846;-51
2021/10/20 01:18:29;;;;;;;7.60;4.50;;;;;;;7.17;100.00;96413.97;1023906;28;20117;-51
2021/10/20 01:19:00;;;;;;;8.30;4.25;;;;;;;7.18;100.00;96406.09;1019699;29;20107;-51
2021/10/20 01:19:31;;;;;;;5.10;3.78;;;;;;;7.18;100.00;96410.47;1023416;29;20426;-50
2021/10/20 01:20:03;;;;;;;6.25;4.05;;;;;;;7.17;100.00;96406.16;1028499;28;20018;-50
2021/10/20 01:20:34;;;;;;;6.32;4.25;;;;;;;7.14;100.00;96411.53;1028888;28;20021;-51
2021/10/20 01:21:05;;;;;;;7.10;4.00;;;;;;;7.12;100.00;96411.59;1029870;28;20250;-52
2021/10/20 01:21:36;;;;;;;6.15;4.32;;;;;;;7.10;100.00;96407.41;1029230;28;20281;-52
2021/10/20 01:22:07;;;;;;;6.93;4.20;;;;;;;7.10;100.00;96408.25;1029136;28;20872;-51
2021/10/20 01:22:37;;;;;;;6.35;4.20;;;;;;;7.08;100.00;96402.25;1028849;28;20027;-52
2021/10/20 01:23:08;;;;;;;5.63;3.80;;;;;;;7.11;100.00;96407.31;1028709;28;20524;-52
2021/10/20 01:23:39;;;;;;;7.57;4.10;;;;;;;7.15;100.00;96400.19;1028689;28;20026;-52
2021/10/20 01:24:09;;;;;;;6.90;4.40;;;;;;;7.12;100.00;96409.00;1025042;28;20106;-51
2021/10/20 01:24:40;;;;;;;6.38;4.20;;;;;;;7.11;100.00;96399.47;1024806;29;20080;-50
2021/10/20 01:25:11;;;;;;;6.03;3.90;;;;;;;7.10;100.00;96403.03;1028908;28;20022;-51
2021/10/20 01:25:41;;;;;;;6.00;4.18;;;;;;;7.08;100.00;96397.06;1028952;28;20037;-52
2021/10/20 01:26:12;;;;;;;5.53;4.03;;;;;;;7.10;100.00;96395.22;1025144;28;20063;-51
2021/10/20 01:26:43;;;;;;;8.90;4.32;;;;;;;7.08;100.00;96396.22;1025035;28;20030;-51
2021/10/20 01:27:14;;;;;;;7.32;4.55;;;;;;;7.10;100.00;96402.19;1020882;29;20023;-52
2021/10/20 01:27:44;;;;;;;6.07;3.95;;;;;;;7.10;100.00;96405.63;1024855;29;20027;-52
2021/10/20 01:28:15;;;;;;;7.20;4.00;;;;;;;7.11;100.00;96404.69;1025065;28;20396;-52
2021/10/20 01:28:46;;;;;;;8.05;4.13;;;;;;;7.11;100.00;96399.47;1025447;28;20575;-52
2021/10/20 01:29:17;;;;;;;6.30;3.92;;;;;;;7.15;100.00;96393.22;1032903;28;20053;-51
2021/10/20 01:29:47;;;;;;;7.90;4.38;;;;;;;7.14;100.00;96398.50;1028976;28;20023;-52
2021/10/20 01:30:18;;;;;;;8.73;4.00;;;;;;;7.09;100.00;96398.72;1032779;28;20851;-52
2021/10/20 01:30:49;;;;;;;7.28;4.25;;;;;;;7.07;100.00;96397.97;1033118;28;20509;-52
2021/10/20 01:31:20;;;;;;;6.72;4.40;;;;;;;7.08;100.00;96399.66;1037099;28;20029;-52
2021/10/20 01:31:53;;;;;;;7.45;4.13;;;;;;;7.06;100.00;96398.88;1036784;28;20365;-51
2021/10/20 01:32:26;;;;;;;7.63;4.28;;;;;;;7.10;100.00;96394.38;1037044;28;20745;-52
2021/10/20 01:32:57;;;;;;;5.85;3.78;;;;;;;7.07;100.00;96400.56;1024616;29;20258;-52
2021/10/20 01:33:27;;;;;;;6.43;4.30;;;;;;;7.06;100.00;96398.88;1025639;28;20289;-51
2021/10/20 01:33:58;;;;;;;7.70;4.03;;;;;;;7.08;100.00;96399.66;1024789;29;20405;-52
2021/10/20 01:34:29;;;;;;;5.80;4.05;;;;;;;7.07;100.00;96395.34;1028792;28;20073;-51
2021/10/20 01:35:00;;;;;;;5.97;3.78;;;;;;;7.07;100.00;96394.50;1033219;28;20084;-52
2021/10/20 01:35:30;;;;;;;5.00;3.60;;;;;;;7.08;100.00;96396.22;1032847;28;20253;-50
2021/10/20 01:36:01;;;;;;;6.93;3.92;;;;;;;7.03;100.00;96388.59;1025166;28;20019;-51
2021/10/20 01:36:32;;;;;;;6.03;4.07;;;;;;;7.00;100.00;96396.56;1032825;28;20022;-51
2021/10/20 01:37:04;;;;;;;6.57;3.88;;;;;;;7.02;100.00;96389.53;1024880;29;20110;-52
2021/10/20 01:37:35;;;;;;;7.32;4.35;;;;;;;7.05;100.00;96386.78;1028798;28;20049;-51
2021/10/20 01:38:06;;;;;;;5.78;3.83;;;;;;;7.06;100.00;96390.22;1024696;29;20262;-51
2021/10/20 01:38:36;;;;;;;6.38;3.85;;;;;;;7.05;100.00;96396.34;1025439;28;20038;-51
2021/10/20 01:39:08;;;;;;;6.78;4.22;;;;;;;7.00;100.00;96391.34;1025188;28;20573;-51
2021/10/20 01:39:38;;;;;;;6.40;4.10;;;;;;;6.99;100.00;96385.31;1025317;28;20023;-51
2021/10/20 01:40:10;;;;;;;6.75;4.65;;;;;;;6.99;100.00;96392.28;1028869;28;20337;-51
2021/10/20 01:40:41;;;;;;;6.70;4.00;;;;;;;6.98;100.00;96388.84;1028520;28;20019;-51
2021/10/20 01:41:12;;;;;;;5.80;4.20;;;;;;;7.03;100.00;96388.59;1025871;28;20267;-51
2021/10/20 01:41:44;;;;;;;8.90;4.45;;;;;;;7.02;100.00;96386.94;1025170;28;20259;-52
2021/10/20 01:42:15;;;;;;;6.55;4.32;;;;;;;7.01;100.00;96388.69;1024683;29;20086;-51
2021/10/20 01:42:46;;;;;;;5.72;4.20;;;;;;;7.03;100.00;96380.78;1020745;29;20800;-51
2021/10/20 01:43:16;;;;;;;5.70;4.05;;;;;;;7.03;100.00;96375.59;1028751;28;20050;-52
2021/10/20 01:43:48;;;;;;;5.68;3.92;;;;;;;7.01;100.00;96383.47;1029144;28;20014;-51
2021/10/20 01:44:19;;;;;;;7.15;4.00;;;;;;;6.99;100.00;96380.09;1029021;28;20026;-52
2021/10/20 01:44:50;;;;;;;7.05;3.88;;;;;;;6.99;100.00;96381.88;1029441;28;20284;-51
2021/10/20 01:45:20;;;;;;;8.93;4.03;;;;;;;6.98;100.00;96381.03;1033024;28;20033;-52
2021/10/20 01:45:51;;;;;;;7.60;4.63;;;;;;;6.96;100.00;96379.41;1024911;28;20125;-50
2021/10/20 01:46:22;;;;;;;6.32;3.80;;;;;;;7.01;100.00;96380.03;1028619;28;20117;-52
2021/10/20 01:46:53;;;;;;;7.03;3.80;;;;;;;6.96;100.00;96377.66;1024881;29;20641;-51
2021/10/20 01:47:23;;;;;;;6.68;4.32;;;;;;;6.96;100.00;96379.41;1024782;29;20448;-51
2021/10/20 01:47:54;;;;;;;11.20;4.65;;;;;;;6.98;100.00;96378.44;1028936;28;20015;-51
2021/10/20 01:48:24;;;;;;;7.82;4.22;;;;;;;6.97;100.00;96378.50;1028575;28;20122;-51
2021/10/20 01:48:55;;;;;;;6.80;4.57;;;;;;;6.96;100.00;96380.28;1024880;28;20019;-52
2021/10/20 01:49:26;;;;;;;6.57;4.65;;;;;;;6.92;100.00;96378.72;1020873;29;20043;-51
2021/10/20 01:49:57;;;;;;;6.80;4.25;;;;;;;6.93;100.00;96376.97;1028722;28;20118;-52
2021/10/20 01:50:28;;;;;;;6.93;4.80;;;;;;;6.94;100.00;96374.25;1020711;29;20028;-49
2021/10/20 01:50:58;;;;;;;7.88;4.47;;;;;;;6.98;100.00;96370.63;1024854;29;20026;-52
2021/10/20 01:51:29;;;;;;;6.47;4.15;;;;;;;7.00;100.00;96373.13;1020706;29;20496;-51
2021/10/20 01:52:00;;;;;;;6.80;4.45;;;;;;;6.97;100.00;96370.69;1028746;28;20030;-50
2021/10/20 01:52:30;;;;;;;7.15;3.90;;;;;;;6.95;100.00;96368.16;1032621;28;20125;-52
2021/10/20 01:53:02;;;;;;;6.15;3.53;;;;;;;6.93;100.00;96369.16;1028860;28;20029;-50
2021/10/20 01:53:33;;;;;;;6.00;4.28;;;;;;;6.90;100.00;96361.47;1024885;29;20034;-50
2021/10/20 01:54:04;;;;;;;6.68;4.35;;;;;;;6.89;100.00;96372.81;1024745;29;20859;-50
2021/10/20 01:54:35;;;;;;;8.65;4.57;;;;;;;6.87;100.00;96364.22;1020855;29;20820;-51
2021/10/20 01:55:14;;;;;;;7.75;4.47;;;;;;;6.87;100.00;96366.81;1028599;28;20277;-51
2021/10/20 01:55:45;;;;;;;5.93;3.83;;;;;;;6.88;100.00;96364.16;1032858;28;20484;-52
2021/10/20 01:56:16;;;;;;;8.13;3.90;;;;;;;6.91;100.00;96357.97;1034312;28;20058;-51
2021/10/20 01:56:47;;;;;;;7.45;4.00;;;;;;;6.93;100.00;96371.75;1034093;28;20377;-51
2021/10/20 01:57:18;;;;;;;6.70;4.07;;;;;;;6.87;100.00;96366.81;1033160;28;20046;-52
2021/10/20 01:57:49;;;;;;;7.57;4.35;;;;;;;6.81;100.00;96361.03;1032872;28;20368;-53
2021/10/20 01:58:19;;;;;;;7.03;4.45;;;;;;;6.80;100.00;96358.50;1033090;28;20022;-52
2021/10/20 01:58:50;;;;;;;6.38;4.15;;;;;;;6.84;100.00;96360.00;1024642;28;20022;-51
2021/10/20 01:59:21;;;;;;;8.32;4.30;;;;;;;6.84;100.00;96360.00;1028695;28;20516;-51
2021/10/20 01:59:52;;;;;;;9.27;4.25;;;;;;;6.81;100.00;96354.94;1028773;28;20023;-51
2021/10/20 02:00:22;;;;;;;6.57;4.40;;;;;;;6.78;100.00;96349.91;1032712;28;20281;-51
2021/10/20 02:00:53;;;;;;;6.43;4.13;;;;;;;6.77;100.00;96358.63;1028859;28;20018;-52
2021/10/20 02:01:24;;;;;;;6.47;4.00;;;;;;;6.76;100.00;96355.19;1032894;28;20234;-51
2021/10/20 02:01:54;;;;;;;6.13;4.00;;;;;;;6.75;100.00;96360.47;1024747;29;20027;-51
2021/10/20 02:02:25;;;;;;;7.13;4.10;;;;;;;6.72;100.00;96356.25;1028801;28;20029;-53
2021/10/20 02:02:55;;;;;;;6.30;4.35;;;;;;;6.72;100.00;96361.47;1028503;28;20019;-51
2021/10/20 02:03:27;;;;;;;6.97;4.25;;;;;;;6.72;100.00;96361.47;1028673;28;20018;-52
2021/10/20 02:03:57;;;;;;;6.63;4.10;;;;;;;6.73;100.00;96357.94;1029229;28;20023;-52
2021/10/20 02:04:28;;;;;;;5.43;3.85;;;;;;;6.71;100.00;96354.56;1024721;28;20290;-49
2021/10/20 02:04:59;;;;;;;4.85;3.72;;;;;;;6.72;100.00;96360.59;1024900;28;20517;-51
2021/10/20 02:05:30;;;;;;;6.30;4.43;;;;;;;6.71;100.00;96351.94;1024708;29;20086;-52
2021/10/20 02:06:03;;;;;;;6.82;4.03;;;;;;;6.69;100.00;96358.16;1020793;29;20067;-50
2021/10/20 02:06:34;;;;;;;7.57;4.10;;;;;;;6.67;100.00;96353.03;1028619;28;20270;-52
2021/10/20 02:07:05;;;;;;;6.35;4.15;;;;;;;6.69;100.00;96353.78;1028756;28;20559;-50
2021/10/20 02:07:35;;;;;;;5.18;3.85;;;;;;;6.68;100.00;96352.13;1029213;28;20027;-51
2021/10/20 02:08:06;;;;;;;6.05;3.92;;;;;;;6.70;100.00;96350.28;1032999;28;20026;-51
2021/10/20 02:08:37;;;;;;;6.35;3.72;;;;;;;6.69;100.00;96351.19;1036963;28;20480;-51
2021/10/20 02:09:08;;;;;;;4.97;3.90;;;;;;;6.69;100.00;96356.41;1032751;28;20018;-51
2021/10/20 02:09:39;;;;;;;7.38;4.22;;;;;;;6.67;100.00;96347.81;1028964;28;20262;-51
2021/10/20 02:10:11;;;;;;;6.30;4.13;;;;;;;6.64;100.00;96355.75;1033108;28;20018;-52
2021/10/20 02:10:42;;;;;;;5.70;3.95;;;;;;;6.63;100.00;96354.09;1029077;28;20492;-51
2021/10/20 02:11:13;;;;;;;7.10;4.82;;;;;;;6.57;100.00;96355.22;1024997;28;20361;-51
2021/10/20 02:11:44;;;;;;;7.88;4.63;;;;;;;6.54;100.00;96357.13;1028791;28;20026;-53
2021/10/20 02:12:15;;;;;;;6.70;4.10;;;;;;;6.51;100.00;96355.50;1025111;28;20271;-51
2021/10/20 02:12:46;;;;;;;8.77;4.70;;;;;;;6.51;100.00;96352.91;1029085;28;20348;-53
2021/10/20 02:13:16;;;;;;;6.57;3.80;;;;;;;6.53;100.00;96356.31;1028886;28;20054;-50
2021/10/20 02:13:47;;;;;;;7.97;4.32;;;;;;;6.51;100.00;96358.09;1032729;28;20056;-52
2021/10/20 02:14:18;;;;;;;6.55;4.13;;;;;;;6.48;100.00;96358.28;1032769;28;20145;-51
2021/10/20 02:14:48;;;;;;;7.20;4.50;;;;;;;6.49;100.00;96357.34;1028650;28;20360;-51
2021/10/20 02:15:19;;;;;;;6.43;4.18;;;;;;;6.54;100.00;96346.72;1029132;28;20118;-51
2021/10/20 02:15:50;;;;;;;6.82;4.05;;;;;;;6.55;100.00;96351.00;1024733;28;20177;-52
2021/10/20 02:16:21;;;;;;;6.20;3.88;;;;;;;6.53;100.00;96360.63;1024871;28;20492;-52
2021/10/20 02:16:51;;;;;;;6.05;4.25;;;;;;;6.49;100.00;96354.72;1024674;29;20353;-50
2021/10/20 02:17:22;;;;;;;6.55;4.40;;;;;;;6.52;100.00;96356.38;1024866;29;20053;-52
2021/10/20 02:17:53;;;;;;;5.63;3.88;;;;;;;6.52;100.00;96353.75;1024527;29;20034;-50
2021/10/20 02:18:24;;;;;;;6.20;4.35;;;;;;;6.52;100.00;96346.78;1024783;29;20612;-51
2021/10/20 02:18:54;;;;;;;6.70;4.05;;;;;;;6.49;100.00;96359.94;1028659;28;20099;-52
2021/10/20 02:19:27;;;;;;;7.70;4.18;;;;;;;6.50;100.00;96350.41;1028900;28;20113;-51
2021/10/20 02:19:58;;;;;;;6.25;4.25;;;;;;;6.50;100.00;96358.19;1028774;28;20363;-51
2021/10/20 02:20:28;;;;;;;7.82;4.30;;;;;;;6.49;100.00;96356.50;1028677;28;20350;-51
2021/10/20 02:20:59;;;;;;;8.52;4.40;;;;;;;6.48;100.00;96358.28;1028843;28;20627;-51
2021/10/20 02:21:30;;;;;;;8.27;4.43;;;;;;;6.45;100.00;96357.56;1028579;28;20170;-51
2021/10/20 02:22:02;;;;;;;8.32;4.25;;;;;;;6.42;100.00;96356.81;1028912;28;20895;-51
2021/10/20 02:22:34;;;;;;;6.32;3.97;;;;;;;6.42;100.00;96354.19;1029219;28;20054;-50
2021/10/20 02:23:04;;;;;;;7.03;3.83;;;;;;;6.39;100.00;96350.91;1020991;29;20291;-52
2021/10/20 02:23:35;;;;;;;7.05;4.28;;;;;;;6.46;100.00;96349.69;1028681;28;20377;-51
2021/10/20 02:24:06;;;;;;;6.50;3.80;;;;;;;6.49;100.00;96353.91;1024663;29;20027;-52
2021/10/20 02:24:37;;;;;;;6.35;4.18;;;;;;;6.45;100.00;96352.38;1028754;28;20269;-52
2021/10/20 02:25:08;;;;;;;6.20;4.25;;;;;;;6.46;100.00;96354.03;1028676;28;20172;-51
2021/10/20 02:25:38;;;;;;;6.63;4.30;;;;;;;6.44;100.00;96351.53;1020637;29;20118;-51
2021/10/20 02:26:09;;;;;;;8.32;4.03;;;;;;;6.46;100.00;96348.81;1024696;29;20485;-52